createdAt,value
2019-03-22T00:02:10.206Z,185.97
2019-03-22T00:04:43.815Z,158.00
2019-03-22T00:07:17.270Z,172.73
2019-03-22T00:09:49.765Z,176.53
2019-03-22T00:12:23.410Z,127.70
2019-03-22T00:14:55.785Z,113.07
2019-03-22T00:17:28.305Z,134.77
2019-03-22T00:20:00.751Z,234.43
2019-03-22T00:22:32.947Z,154.40
2019-03-22T00:25:07.686Z,108.50
2019-03-22T00:27:40.327Z,124.47
2019-03-22T00:30:13.620Z,101.20
2019-03-22T00:32:46.070Z,115.17
2019-03-22T00:35:18.630Z,186.40
2019-03-22T00:37:51.148Z,178.33
2019-03-22T00:40:23.535Z,153.47
2019-03-22T00:42:55.848Z,211.03
2019-03-22T00:45:28.170Z,148.50
2019-03-22T00:48:00.525Z,152.40
2019-03-22T00:50:32.855Z,202.60
2019-03-22T00:53:05.331Z,178.70
2019-03-22T00:55:37.753Z,246.43
2019-03-22T00:58:10.346Z,229.10
2019-03-22T01:00:42.905Z,182.53
2019-03-22T01:03:15.490Z,130.87
2019-03-22T01:05:49.050Z,100.87
2019-03-22T01:08:22.840Z,88.87
2019-03-22T01:10:55.190Z,115.43
2019-03-22T01:13:27.778Z,133.20
2019-03-22T01:16:00.295Z,131.97
2019-03-22T01:18:33.580Z,158.07
2019-03-22T01:21:05.785Z,178.00
2019-03-22T01:23:38.606Z,342.07
2019-03-22T01:26:11.023Z,129.27
2019-03-22T01:28:43.245Z,146.37
2019-03-22T01:31:15.880Z,105.17
2019-03-22T01:33:48.415Z,91.33
2019-03-22T01:36:20.755Z,119.10
2019-03-22T01:38:53.090Z,147.77
2019-03-22T01:41:25.661Z,257.00
2019-03-22T01:43:58.135Z,108.27
2019-03-22T01:46:30.407Z,75.47
2019-03-22T01:49:02.796Z,92.80
2019-03-22T01:51:35.256Z,95.87
2019-03-22T01:54:07.800Z,78.23
2019-03-22T01:56:40.312Z,74.70
2019-03-22T01:59:12.565Z,95.07
2019-03-22T02:01:44.755Z,104.13
2019-03-22T02:04:17.125Z,106.00
2019-03-22T02:06:49.305Z,111.90
2019-03-22T02:09:21.666Z,101.73
2019-03-22T02:11:53.819Z,89.47
2019-03-22T02:14:26.100Z,107.80
2019-03-22T02:16:58.375Z,81.93
2019-03-22T02:19:30.735Z,77.07
2019-03-22T02:22:03.240Z,74.20
2019-03-22T02:24:35.685Z,85.40
2019-03-22T02:27:08.057Z,69.10
2019-03-22T02:29:40.425Z,67.03
2019-03-22T02:32:13.852Z,69.63
2019-03-22T02:34:46.089Z,79.97
2019-03-22T11:52:58.155Z,25.77
2019-03-22T11:55:30.727Z,28.67
2019-03-22T11:58:03.091Z,30.87
2019-03-22T12:00:35.565Z,33.73
2019-03-22T12:03:08.295Z,32.57
2019-03-22T12:05:40.861Z,111.30
2019-03-22T12:08:13.465Z,74.03
2019-03-22T12:10:45.655Z,40.93
2019-03-22T12:13:18.025Z,32.30
2019-03-22T12:15:50.317Z,51.87
2019-03-22T12:18:22.545Z,47.73
2019-03-22T12:20:56.586Z,55.30
2019-03-22T12:23:29.040Z,44.37
2019-03-22T12:26:01.936Z,23.73
2019-03-22T12:28:34.650Z,44.53
2019-03-22T12:31:07.550Z,38.10
2019-03-22T12:33:40.480Z,37.50
2019-03-22T12:36:12.961Z,33.87
2019-03-22T12:38:45.430Z,34.33
2019-03-22T12:41:17.815Z,40.37
2019-03-22T12:43:50.290Z,28.77
2019-03-22T12:46:23.135Z,25.27
2019-03-22T12:48:55.790Z,33.30
2019-03-22T12:51:28.231Z,33.37
2019-03-22T12:54:01.065Z,40.00
2019-03-22T12:56:34.810Z,22.60
2019-03-22T12:59:07.650Z,20.90
2019-03-22T13:01:40.430Z,24.53
2019-03-22T13:04:12.975Z,31.93
2019-03-22T13:06:45.451Z,28.80
2019-03-22T13:09:17.975Z,34.37
2019-03-22T13:11:50.246Z,30.63
2019-03-22T13:14:22.700Z,35.60
2019-03-22T13:16:54.615Z,37.83
2019-03-22T13:19:27.271Z,30.73
2019-03-22T13:21:59.745Z,34.30
2019-03-22T13:24:32.094Z,30.63
2019-03-22T13:27:04.500Z,35.90
2019-03-22T13:29:36.829Z,40.93
2019-03-22T13:32:09.390Z,34.10
2019-03-22T13:34:41.865Z,40.83
2019-03-22T13:37:14.125Z,31.33
2019-03-22T13:39:46.360Z,47.87
2019-03-22T13:42:18.910Z,54.50
2019-03-22T13:44:51.156Z,48.83
2019-03-22T13:47:23.775Z,47.10
2019-03-22T13:49:56.368Z,54.97
2019-03-22T13:52:28.750Z,46.30
2019-03-22T13:55:01.515Z,47.43
2019-03-22T13:57:33.970Z,63.33
2019-03-22T14:00:15.675Z,47.03
2019-03-22T14:02:48.165Z,52.23
2019-03-22T14:05:20.315Z,37.33
2019-03-22T14:07:52.679Z,46.17
2019-03-22T14:10:32.936Z,45.83
2019-03-22T14:13:06.755Z,42.90
2019-03-22T14:15:38.935Z,36.43
2019-03-22T14:18:11.445Z,44.20
2019-03-22T14:20:44.355Z,57.13
2019-03-22T14:23:16.696Z,54.07
2019-03-22T14:25:49.422Z,64.20
2019-03-22T14:28:21.875Z,72.67
2019-03-22T14:30:54.359Z,55.87
2019-03-22T14:33:26.655Z,58.03
2019-03-22T14:35:59.566Z,70.13
2019-03-22T14:38:32.055Z,43.27
2019-03-22T14:41:04.879Z,125.80
2019-03-22T14:43:37.179Z,123.53
2019-03-22T14:46:09.619Z,55.53
2019-03-22T14:48:43.625Z,87.43
2019-03-22T14:51:16.205Z,70.20
2019-03-22T14:53:49.025Z,138.30
2019-03-22T14:56:21.925Z,125.43
2019-03-22T14:58:54.345Z,100.27
2019-03-22T15:01:27.050Z,100.13
2019-03-22T15:03:59.395Z,103.57
2019-03-22T15:06:31.895Z,88.23
2019-03-22T15:09:06.260Z,70.30
2019-03-22T15:11:39.010Z,69.77
2019-03-22T15:14:29.296Z,78.93
2019-03-22T15:17:12.925Z,84.93
2019-03-22T15:19:47.088Z,68.67
2019-03-22T15:22:27.263Z,97.93
2019-03-22T15:25:17.075Z,96.23
2019-03-22T15:27:51.539Z,117.60
2019-03-22T15:30:43.010Z,113.33
2019-03-22T15:33:20.954Z,150.43
2019-03-22T15:36:13.507Z,118.33
2019-03-22T15:39:03.126Z,107.67
2019-03-22T15:41:37.159Z,101.67
2019-03-22T15:44:09.903Z,118.63
2019-03-22T15:46:42.510Z,135.73
2019-03-22T15:49:15.203Z,111.17
2019-03-22T15:51:48.879Z,114.87
2019-03-22T15:54:21.785Z,118.27
2019-03-22T15:56:54.350Z,134.57
2019-03-22T15:59:26.670Z,120.17
2019-03-22T16:01:59.045Z,181.63
2019-03-22T16:04:31.665Z,144.73
2019-03-22T16:07:04.141Z,130.43
2019-03-22T16:09:36.720Z,94.20
2019-03-22T16:12:09.427Z,347.10
2019-03-22T16:14:42.185Z,72.63
2019-03-22T16:17:14.935Z,61.93
2019-03-22T16:19:47.500Z,66.57
2019-03-22T16:22:20.216Z,73.47
2019-03-22T16:24:52.705Z,83.80
2019-03-22T16:27:25.585Z,96.53
2019-03-22T16:29:58.975Z,90.87
2019-03-22T16:32:31.670Z,79.43
2019-03-22T16:35:05.562Z,89.30
2019-03-22T16:37:38.315Z,70.67
2019-03-22T16:40:12.166Z,78.03
2019-03-22T16:42:45.230Z,97.73
2019-03-22T16:45:33.696Z,88.67
2019-03-22T16:48:06.600Z,81.83
2019-03-22T16:50:40.120Z,78.50
2019-03-22T16:53:12.581Z,74.43
2019-03-22T16:55:45.040Z,85.03
2019-03-22T16:58:17.471Z,167.13
2019-03-22T17:00:50.137Z,64.93
2019-03-22T17:03:22.910Z,72.07
2019-03-22T17:05:55.800Z,84.43
2019-03-22T17:08:28.225Z,234.27
2019-03-22T17:11:00.606Z,143.97
2019-03-22T17:13:32.990Z,130.50
2019-03-22T17:16:05.566Z,128.70
2019-03-22T17:18:39.095Z,138.27
2019-03-22T17:21:11.601Z,169.50
2019-03-22T17:23:43.995Z,154.03
2019-03-22T17:26:16.331Z,162.27
2019-03-22T17:28:48.691Z,182.03
2019-03-22T17:31:21.126Z,206.53
2019-03-22T17:33:53.686Z,230.80
2019-03-22T17:36:26.172Z,209.93
2019-03-22T17:38:58.506Z,228.37
2019-03-22T17:41:30.951Z,228.83
2019-03-22T17:44:03.314Z,284.67
2019-03-22T17:46:35.830Z,223.40
2019-03-22T17:49:08.201Z,174.07
2019-03-22T17:51:40.500Z,131.43
2019-03-22T17:54:12.867Z,150.70
2019-03-22T17:56:45.332Z,138.37
2019-03-22T17:59:17.786Z,116.07
2019-03-22T18:01:50.125Z,112.83
2019-03-22T18:04:24.309Z,97.93
2019-03-22T18:06:56.900Z,172.83
2019-03-22T18:09:29.286Z,213.17
2019-03-22T18:12:01.645Z,223.20
2019-03-22T18:14:33.961Z,251.57
2019-03-22T18:17:06.286Z,151.67
2019-03-22T18:19:38.946Z,108.37
2019-03-22T18:22:11.181Z,118.33
2019-03-22T18:24:43.431Z,154.70
2019-03-22T18:27:15.841Z,160.67
2019-03-22T18:29:47.971Z,268.00
2019-03-22T18:32:20.207Z,179.10
2019-03-22T18:34:52.521Z,257.13
2019-03-22T18:37:25.122Z,232.57
2019-03-22T18:39:57.796Z,225.20
2019-03-22T18:42:30.186Z,204.87
2019-03-22T18:45:02.367Z,218.00
2019-03-22T18:47:35.080Z,223.57
2019-03-22T18:50:09.576Z,236.00
2019-03-22T18:52:43.276Z,348.73
2019-03-22T18:55:15.866Z,293.83
2019-03-22T18:57:48.212Z,326.67
2019-03-22T19:00:20.512Z,291.03
2019-03-22T19:02:52.879Z,323.17
2019-03-22T19:05:25.316Z,300.90
2019-03-22T19:07:57.640Z,333.67
2019-03-22T19:10:30.042Z,346.87
2019-03-22T19:13:02.366Z,312.27
2019-03-22T19:15:34.851Z,289.43
2019-03-22T19:18:07.291Z,315.93
2019-03-22T19:20:40.179Z,290.43
2019-03-22T19:23:12.637Z,251.00
2019-03-22T19:25:45.105Z,216.07
2019-03-22T19:28:17.486Z,157.77
2019-03-22T19:30:51.200Z,148.03
2019-03-22T19:33:24.111Z,126.07
2019-03-22T19:35:56.570Z,113.17
2019-03-22T19:38:28.951Z,109.43
2019-03-22T19:41:01.610Z,100.90
2019-03-22T19:43:34.447Z,92.47
2019-03-22T19:46:06.707Z,95.20
2019-03-22T19:48:39.034Z,139.43
2019-03-22T19:51:11.576Z,90.17
2019-03-22T19:53:44.226Z,71.50
2019-03-22T19:56:16.621Z,121.13
2019-03-22T19:58:48.916Z,96.37
2019-03-22T20:01:21.406Z,126.27
2019-03-22T20:03:53.809Z,90.90
2019-03-22T20:06:26.211Z,106.53
2019-03-22T20:08:58.506Z,93.20
2019-03-22T20:11:31.023Z,153.03
2019-03-22T20:14:03.821Z,164.90
2019-03-22T20:16:35.966Z,102.67
2019-03-22T20:19:08.510Z,95.23
2019-03-22T20:21:41.116Z,89.70
2019-03-22T20:24:13.561Z,99.30
2019-03-22T20:26:46.220Z,174.60
2019-03-22T20:29:18.911Z,89.60
2019-03-22T20:31:51.165Z,79.17
2019-03-22T20:34:23.559Z,135.13
2019-03-22T20:36:56.181Z,121.37
2019-03-22T20:39:28.375Z,68.00
2019-03-22T20:42:00.991Z,82.10
2019-03-22T20:44:34.281Z,80.67
2019-03-22T20:47:06.826Z,79.10
2019-03-22T20:49:39.376Z,71.23
2019-03-22T20:52:11.935Z,66.17
2019-03-22T20:54:44.575Z,74.63
2019-03-22T20:57:17.197Z,94.93
2019-03-22T20:59:49.716Z,67.07
2019-03-22T21:02:22.096Z,157.07
2019-03-22T21:04:55.032Z,63.23
2019-03-22T21:07:27.405Z,87.20
2019-03-22T21:09:59.793Z,62.50
2019-03-22T21:12:32.517Z,73.63
2019-03-22T21:15:06.792Z,74.80
2019-03-22T21:17:39.057Z,63.30
2019-03-22T21:20:11.846Z,55.23
2019-03-22T21:22:44.507Z,65.77
2019-03-22T21:25:16.940Z,44.93
2019-03-22T21:27:50.411Z,44.73
2019-03-22T21:30:22.861Z,52.07
2019-03-22T21:32:55.235Z,50.50
2019-03-22T21:35:36.947Z,71.70
2019-03-22T21:38:10.495Z,50.00
2019-03-22T21:40:35.550Z,45.90
2019-03-22T21:43:07.790Z,46.23
2019-03-22T21:45:40.245Z,64.70
2019-03-22T21:48:12.695Z,43.13
2019-03-22T21:50:45.405Z,42.27
2019-03-22T21:53:17.960Z,43.97
2019-03-22T21:55:50.505Z,50.23
2019-03-22T21:58:22.835Z,47.13
2019-03-22T22:00:55.240Z,39.10
2019-03-22T22:03:27.555Z,48.40
2019-03-22T22:06:00.015Z,47.97
2019-03-22T22:08:32.905Z,44.40
2019-03-22T22:11:05.360Z,43.50
2019-03-22T22:13:37.698Z,37.97
2019-03-22T22:16:10.171Z,43.73
2019-03-22T22:18:42.685Z,42.90
2019-03-22T22:21:16.085Z,38.40
2019-03-22T22:23:48.590Z,39.73
2019-03-22T22:26:21.030Z,45.60
2019-03-22T22:28:53.791Z,38.67
2019-03-22T22:31:26.050Z,46.67
2019-03-22T22:33:59.560Z,41.63
2019-03-22T22:36:32.061Z,46.60
2019-03-22T22:39:06.190Z,44.00
2019-03-22T22:41:40.328Z,49.53
2019-03-22T22:44:12.771Z,38.53
2019-03-22T22:46:45.235Z,40.83
2019-03-22T22:49:17.700Z,39.20
2019-03-22T22:51:49.946Z,40.87
2019-03-22T22:54:22.205Z,37.60
2019-03-22T22:56:54.700Z,37.57
2019-03-22T22:59:26.905Z,37.70
2019-03-22T23:01:59.287Z,38.83
2019-03-22T23:04:32.240Z,41.63
2019-03-22T23:07:04.830Z,47.07
2019-03-22T23:09:37.104Z,44.37
2019-03-22T23:12:09.295Z,47.83
2019-03-22T23:14:41.715Z,67.10
2019-03-22T23:17:14.037Z,73.97
2019-03-22T23:19:46.596Z,69.37
2019-03-22T23:22:18.889Z,80.53
2019-03-22T23:24:51.005Z,52.73
2019-03-22T23:27:24.731Z,52.90
2019-03-22T23:29:56.886Z,71.60
2019-03-22T23:32:29.196Z,62.47
2019-03-22T23:35:01.475Z,62.00
2019-03-22T23:37:34.073Z,57.33
2019-03-22T23:40:07.890Z,56.70
2019-03-22T23:42:41.230Z,64.73
2019-03-22T23:45:13.477Z,86.87
2019-03-22T23:47:45.880Z,77.50
2019-03-22T23:50:18.275Z,82.47
2019-03-22T23:52:50.595Z,58.07
2019-03-22T23:55:22.975Z,51.07
2019-03-22T23:57:55.180Z,55.40
